Главная страница
METAR-TAF:

METAR-TAF

Аэропорты :

Danbury Municipal Airport

Danbury, Коннектикут, США

широта: 41-22-18N, долгота: 073-29-04W, высота над уровнем моря: 139 м

Текущие метеонаблюдения

Эта сводка был подготовлена 57 минут назад, в 04:53 UTC
Ветер 5 Узел от северный
Температура -3°C
Влажность 50%
Давление 1036 hPa
Видимость: 16.1 км
ясное небо

METAR: KDXR 150453Z AUTO 36005KT 10SM CLR M03/M12 A3058 RMK AO2 SLP359 T10281117 400391028

Время: 00:50 (05:50 UTC)


TAF: отсутствует

Метеонаблюдения и прогнозы для более 4000 аэропортов (сводки METAR и TAF).

Имеющиеся станции представлены на карте желтыми и красными точками.

Чтобы увидеть название станции, наведите на нее мышь.

Затем щелкните, чтобы увидеть метеонаблюдения и метеопрогнозы.

Управление картой: чтобы увеличить масштаб, щелкните зеленые кнопки с черным крестиком; чтобы уменьшить масштаб, щелкните зеленую кнопку с тире; для просмотра соседних карт щелкайте зеленые стрелки.


METAR-TAF: